プラハ の空港の天気 - METARとTAF

ルズィニエ国際空港(プラハ) ( LKPR / PRG ) - チェコ プラハ
飛行場実況気象(Metar)
観測時間11/22 13:30 CET (11/22 12:30 UTC)
風向・風速西南西 5m/s
視程10km以上
天気現象
少しの雲 雲底高度 760m
気温10℃
湿度71%
気圧1012hPa
METARLKPR 221230Z 24009KT 9999 FEW025 10/05 Q1012 NOSIG
過去の天気等 Google飛行場航空写真 Wunderground天気予報

過去48時間のMETAR

飛行場予報(TAF)
発表時間: 11/22 12:00 CET (11/22 11:00 UTC)
予報対象時間: 22日13時 CET ~ 23日19時 CET
風向・風速西南西 8m/s
視程10km以上
なし
22日13時 CET ~ 22日17時 CET に一時的に
全天の8割程度の雲 雲底高度 760m
22日20時 CET ~ 22日22時 CET に徐々に
風向・風速不定 1m/s
23日4時 CET ~ 23日9時 CET に一時的に
視程5,000m
天気現象もや
全天の4割程度の雲 雲底高度 210m
TAF LKPR 221100Z 2212/2318 24016KT CAVOK
TEMPO 2212/2216 BKN025
BECMG 2219/2221 VRB02KT
TEMPO 2303/2308 5000 BR SCT007